Terminal Aerodrome Forecast
Issued by NWS

Home | Current Version | Previous Version | Text Only | Print | Product List | Glossary On
Versions: 1 2 3 4 5 6 7 8 9 10 11 12
000
FTUS46 KHNX 071120
TAFBFL
TAF
KBFL 071120Z 0712/0812 34005KT P6SM FEW150
     FM071800 30011KT P6SM FEW150
     FM080300 34009KT P6SM FEW150=

USA.gov is the U.S. government's official web portal to all federal, state and local government web resources and services.